Terminal Aerodrome Forecast
Issued by NWS

Home | Current Version | Previous Version | Text Only | Print | Product List | Glossary Off
Versions: 1 2 3 4 5 6 7 8 9 10 11 12

772
FTUS43 KMPX 272330
TAFRNH
TAF
KRNH 272330Z 2800/2824 28008KT P6SM OVC023
     FM280700 29009KT P6SM SCT025 BKN035
     FM281700 32007KT P6SM SCT035=

USA.gov is the U.S. government's official web portal to all federal, state and local government web resources and services.